Garden City Regional Airport
KGCK : now visible

Airfield :











YOU CAN JOIN US ON...

 
LOGIN :

Register | Disclaimer

   EN    FR    IT 

 









Legend :    VFR   Marginal VFR   IFR   Intensive IFR   Very Intensive IFR
Visi :
Ceiling :
>= 8 km
>= 3000ft
5 to 8 km
1000 to 3000 ft
1500m to 5 km
500 to 1000 ft
800 to 1500m
200 to 500 ft
< 800m
< 200 ft
Symbols :   Thunderstorms  Fog  Heavy snow  Heavy precipitations  Wind > 20 kt







- Airport Elevation : 2891 ft
- IATA code : GCK


KGCK - Garden City Regional

CURRENT METAR :
  • 261554Z 18025G31KT 10SM CLR 19/06 A3012 RMK AO2 PK WND 19031/1553 SLP186 T01940061

EXPIRED METARs :
  • 261454Z 19014KT 10SM CLR 17/07 A3015 RMK AO2 SLP196 T01720067 58008
  • 261354Z 17005KT 10SM CLR 11/05 A3017 RMK AO2 SLP207 T01060050

TAF KGCK
Valid from the 26 at 12:00 until the 27 at 12:00 UTC


261120Z 2612/2712 VRB06KT P6SM SKC
FM261400 19013G20KT P6SM SCT100
FM261700 19025G35KT P6SM SCT120
KZKC FIR / North America



MET'MAP, your aeronautical weather chart ! - Copyright ORBIFLY December 2007 - Disclaimer

ORBIFLY MET'MAP TEAM :

Programming & Development : Alexandra Zaïnal
Concept & Development : Baudouin d'Aumeries
Co-Development & Prog : Marc-Olivier Méhu
Technical & hardware support : Manuel Goepfert

Contact : metmap@orbifly.com




SOURCES & CREDITS :

   NOAA       Earth
Advisory